Terminal Aerodrome Forecast
Issued by NWS

Home | Current Version | Previous Version | Text Only | Print | Product List | Glossary On
Versions: 1 2 3 4 5 6 7 8 9 10 11 12 13 14 15
000
FTAK31 PAJN 261700
TAFAJN
TAF
PAJN 261737Z 2618/2718 VRB05KT P6SM BCFG VCSH FEW015 BKN030 OVC050
     FM262000 08005KT P6SM SCT040 BKN070
     FM270500 08004KT 6SM BCFG FEW005 SCT040 BKN060
     FM271600 VRB05KT P6SM BCFG FEW010 SCT100=

USA.gov is the U.S. government's official web portal to all federal, state and local government web resources and services.